sensor_id;sensor_type;location;lat;lon;timestamp;P1;durP1;ratioP1;P2;durP2;ratioP2
13967;SDS011;39536;52.198;9.920;2023-11-21T00:01:09;18.40;;;12.93;;
13967;SDS011;39536;52.198;9.920;2023-11-21T00:03:37;14.90;;;13.33;;
13967;SDS011;39536;52.198;9.920;2023-11-21T00:06:03;21.63;;;13.90;;
13967;SDS011;39536;52.198;9.920;2023-11-21T00:08:34;19.80;;;14.73;;
13967;SDS011;39536;52.198;9.920;2023-11-21T00:11:02;16.97;;;15.30;;
13967;SDS011;39536;52.198;9.920;2023-11-21T00:13:30;15.97;;;13.30;;
13967;SDS011;39536;52.198;9.920;2023-11-21T00:15:57;30.47;;;15.23;;
13967;SDS011;39536;52.198;9.920;2023-11-21T00:18:23;26.03;;;14.43;;
13967;SDS011;39536;52.198;9.920;2023-11-21T00:20:50;20.73;;;13.87;;
13967;SDS011;39536;52.198;9.920;2023-11-21T00:23:17;21.27;;;15.23;;
13967;SDS011;39536;52.198;9.920;2023-11-21T00:25:43;19.63;;;13.73;;
13967;SDS011;39536;52.198;9.920;2023-11-21T00:28:11;19.47;;;15.50;;
13967;SDS011;39536;52.198;9.920;2023-11-21T00:30:38;21.67;;;15.37;;
13967;SDS011;39536;52.198;9.920;2023-11-21T00:33:04;26.07;;;15.23;;
13967;SDS011;39536;52.198;9.920;2023-11-21T00:35:40;19.10;;;15.97;;
13967;SDS011;39536;52.198;9.920;2023-11-21T00:38:07;22.33;;;14.43;;
13967;SDS011;39536;52.198;9.920;2023-11-21T00:40:34;22.97;;;15.20;;
13967;SDS011;39536;52.198;9.920;2023-11-21T00:43:01;23.40;;;15.10;;
13967;SDS011;39536;52.198;9.920;2023-11-21T00:45:29;18.73;;;14.83;;
13967;SDS011;39536;52.198;9.920;2023-11-21T00:47:55;21.53;;;15.57;;
13967;SDS011;39536;52.198;9.920;2023-11-21T00:50:26;23.40;;;15.37;;
13967;SDS011;39536;52.198;9.920;2023-11-21T00:52:52;28.10;;;17.73;;
13967;SDS011;39536;52.198;9.920;2023-11-21T00:55:19;17.10;;;13.70;;
13967;SDS011;39536;52.198;9.920;2023-11-21T00:57:49;20.67;;;14.80;;
13967;SDS011;39536;52.198;9.920;2023-11-21T01:00:16;19.97;;;14.13;;
13967;SDS011;39536;52.198;9.920;2023-11-21T01:02:44;22.47;;;16.03;;
13967;SDS011;39536;52.198;9.920;2023-11-21T01:05:11;18.53;;;15.53;;
13967;SDS011;39536;52.198;9.920;2023-11-21T01:07:38;31.63;;;15.07;;
13967;SDS011;39536;52.198;9.920;2023-11-21T01:10:05;17.77;;;14.07;;
13967;SDS011;39536;52.198;9.920;2023-11-21T01:12:33;30.57;;;17.77;;
13967;SDS011;39536;52.198;9.920;2023-11-21T01:15:00;25.97;;;15.70;;
13967;SDS011;39536;52.198;9.920;2023-11-21T01:17:27;31.33;;;16.90;;
13967;SDS011;39536;52.198;9.920;2023-11-21T01:19:55;19.20;;;15.60;;
13967;SDS011;39536;52.198;9.920;2023-11-21T01:22:22;23.47;;;15.53;;
13967;SDS011;39536;52.198;9.920;2023-11-21T01:24:51;23.70;;;15.10;;
13967;SDS011;39536;52.198;9.920;2023-11-21T01:27:18;20.10;;;16.73;;
13967;SDS011;39536;52.198;9.920;2023-11-21T01:29:44;21.30;;;15.53;;
13967;SDS011;39536;52.198;9.920;2023-11-21T01:32:11;21.37;;;15.60;;
13967;SDS011;39536;52.198;9.920;2023-11-21T01:34:38;17.93;;;14.90;;
13967;SDS011;39536;52.198;9.920;2023-11-21T01:37:09;22.20;;;16.43;;
13967;SDS011;39536;52.198;9.920;2023-11-21T01:39:40;24.57;;;15.00;;
13967;SDS011;39536;52.198;9.920;2023-11-21T01:42:06;28.53;;;15.97;;
13967;SDS011;39536;52.198;9.920;2023-11-21T01:44:33;24.90;;;14.63;;
13967;SDS011;39536;52.198;9.920;2023-11-21T01:47:00;28.30;;;15.50;;
13967;SDS011;39536;52.198;9.920;2023-11-21T01:49:30;21.97;;;15.60;;
13967;SDS011;39536;52.198;9.920;2023-11-21T01:51:57;26.93;;;16.07;;
13967;SDS011;39536;52.198;9.920;2023-11-21T01:54:25;32.10;;;16.77;;
13967;SDS011;39536;52.198;9.920;2023-11-21T01:56:54;27.30;;;16.30;;
13967;SDS011;39536;52.198;9.920;2023-11-21T01:59:21;26.23;;;16.80;;
13967;SDS011;39536;52.198;9.920;2023-11-21T02:01:51;30.60;;;17.03;;
13967;SDS011;39536;52.198;9.920;2023-11-21T02:04:18;29.83;;;17.40;;
13967;SDS011;39536;52.198;9.920;2023-11-21T02:06:46;29.80;;;16.97;;
13967;SDS011;39536;52.198;9.920;2023-11-21T02:09:13;30.87;;;16.57;;
13967;SDS011;39536;52.198;9.920;2023-11-21T02:11:41;22.63;;;16.83;;
13967;SDS011;39536;52.198;9.920;2023-11-21T02:14:09;29.60;;;17.97;;
13967;SDS011;39536;52.198;9.920;2023-11-21T02:16:36;23.70;;;17.17;;
13967;SDS011;39536;52.198;9.920;2023-11-21T02:19:03;28.90;;;17.27;;
13967;SDS011;39536;52.198;9.920;2023-11-21T02:21:34;27.73;;;17.67;;
13967;SDS011;39536;52.198;9.920;2023-11-21T02:24:03;27.90;;;17.43;;
13967;SDS011;39536;52.198;9.920;2023-11-21T02:26:30;32.07;;;17.30;;
13967;SDS011;39536;52.198;9.920;2023-11-21T02:28:57;28.40;;;17.30;;
13967;SDS011;39536;52.198;9.920;2023-11-21T02:31:23;28.97;;;17.30;;
13967;SDS011;39536;52.198;9.920;2023-11-21T02:33:50;30.20;;;17.67;;
13967;SDS011;39536;52.198;9.920;2023-11-21T02:36:18;23.80;;;17.60;;
13967;SDS011;39536;52.198;9.920;2023-11-21T02:38:46;26.70;;;18.13;;
13967;SDS011;39536;52.198;9.920;2023-11-21T02:41:14;30.27;;;18.50;;
13967;SDS011;39536;52.198;9.920;2023-11-21T02:43:41;28.93;;;18.40;;
13967;SDS011;39536;52.198;9.920;2023-11-21T02:46:08;30.43;;;18.30;;
13967;SDS011;39536;52.198;9.920;2023-11-21T02:48:35;34.40;;;19.67;;
13967;SDS011;39536;52.198;9.920;2023-11-21T02:51:01;34.13;;;19.20;;
13967;SDS011;39536;52.198;9.920;2023-11-21T02:53:28;29.73;;;17.67;;
13967;SDS011;39536;52.198;9.920;2023-11-21T02:55:55;27.97;;;18.43;;
13967;SDS011;39536;52.198;9.920;2023-11-21T02:58:23;34.23;;;19.03;;
13967;SDS011;39536;52.198;9.920;2023-11-21T03:00:49;29.47;;;19.37;;
13967;SDS011;39536;52.198;9.920;2023-11-21T03:03:16;21.67;;;17.53;;
13967;SDS011;39536;52.198;9.920;2023-11-21T03:05:43;34.93;;;19.80;;
13967;SDS011;39536;52.198;9.920;2023-11-21T03:08:10;31.30;;;19.23;;
13967;SDS011;39536;52.198;9.920;2023-11-21T03:10:36;34.43;;;19.77;;
13967;SDS011;39536;52.198;9.920;2023-11-21T03:13:03;28.03;;;19.33;;
13967;SDS011;39536;52.198;9.920;2023-11-21T03:15:31;26.63;;;18.70;;
13967;SDS011;39536;52.198;9.920;2023-11-21T03:18:00;32.37;;;19.63;;
13967;SDS011;39536;52.198;9.920;2023-11-21T03:20:26;39.57;;;21.53;;
13967;SDS011;39536;52.198;9.920;2023-11-21T03:22:53;37.47;;;20.13;;
13967;SDS011;39536;52.198;9.920;2023-11-21T03:25:20;36.93;;;20.50;;
13967;SDS011;39536;52.198;9.920;2023-11-21T03:27:49;34.97;;;20.23;;
13967;SDS011;39536;52.198;9.920;2023-11-21T03:30:15;30.47;;;19.97;;
13967;SDS011;39536;52.198;9.920;2023-11-21T03:32:44;34.40;;;22.43;;
13967;SDS011;39536;52.198;9.920;2023-11-21T03:35:10;33.77;;;21.37;;
13967;SDS011;39536;52.198;9.920;2023-11-21T03:37:37;42.83;;;22.03;;
13967;SDS011;39536;52.198;9.920;2023-11-21T03:40:06;46.67;;;20.87;;
13967;SDS011;39536;52.198;9.920;2023-11-21T03:42:34;38.90;;;21.07;;
13967;SDS011;39536;52.198;9.920;2023-11-21T03:45:01;39.43;;;21.63;;
13967;SDS011;39536;52.198;9.920;2023-11-21T03:47:28;36.23;;;22.07;;
13967;SDS011;39536;52.198;9.920;2023-11-21T03:49:56;43.87;;;22.97;;
13967;SDS011;39536;52.198;9.920;2023-11-21T03:52:22;42.97;;;21.97;;
13967;SDS011;39536;52.198;9.920;2023-11-21T03:54:50;41.27;;;23.23;;
13967;SDS011;39536;52.198;9.920;2023-11-21T03:57:17;42.30;;;22.53;;
13967;SDS011;39536;52.198;9.920;2023-11-21T03:59:43;37.57;;;21.43;;
13967;SDS011;39536;52.198;9.920;2023-11-21T04:02:10;31.83;;;21.90;;
13967;SDS011;39536;52.198;9.920;2023-11-21T04:04:36;44.73;;;23.07;;
13967;SDS011;39536;52.198;9.920;2023-11-21T04:07:05;35.30;;;21.50;;
13967;SDS011;39536;52.198;9.920;2023-11-21T04:09:31;35.00;;;21.77;;
13967;SDS011;39536;52.198;9.920;2023-11-21T04:11:58;40.07;;;21.40;;
13967;SDS011;39536;52.198;9.920;2023-11-21T04:14:25;35.40;;;20.70;;
13967;SDS011;39536;52.198;9.920;2023-11-21T04:16:51;35.37;;;22.40;;
13967;SDS011;39536;52.198;9.920;2023-11-21T04:19:18;37.63;;;21.43;;
13967;SDS011;39536;52.198;9.920;2023-11-21T04:21:45;36.37;;;20.93;;
13967;SDS011;39536;52.198;9.920;2023-11-21T04:24:13;43.20;;;21.73;;
13967;SDS011;39536;52.198;9.920;2023-11-21T04:26:41;40.90;;;22.53;;
13967;SDS011;39536;52.198;9.920;2023-11-21T04:29:07;38.23;;;21.13;;
13967;SDS011;39536;52.198;9.920;2023-11-21T04:31:34;36.10;;;20.97;;
13967;SDS011;39536;52.198;9.920;2023-11-21T04:34:01;35.90;;;22.17;;
13967;SDS011;39536;52.198;9.920;2023-11-21T04:36:29;43.87;;;23.37;;
13967;SDS011;39536;52.198;9.920;2023-11-21T04:38:56;34.53;;;21.43;;
13967;SDS011;39536;52.198;9.920;2023-11-21T04:41:24;48.40;;;22.80;;
13967;SDS011;39536;52.198;9.920;2023-11-21T04:43:51;38.50;;;20.33;;
13967;SDS011;39536;52.198;9.920;2023-11-21T04:46:18;45.97;;;22.10;;
13967;SDS011;39536;52.198;9.920;2023-11-21T04:48:44;34.20;;;19.47;;
13967;SDS011;39536;52.198;9.920;2023-11-21T04:51:12;46.20;;;23.43;;
13967;SDS011;39536;52.198;9.920;2023-11-21T04:53:38;41.63;;;25.03;;
13967;SDS011;39536;52.198;9.920;2023-11-21T04:56:06;48.97;;;23.80;;
13967;SDS011;39536;52.198;9.920;2023-11-21T04:58:34;43.53;;;22.57;;
13967;SDS011;39536;52.198;9.920;2023-11-21T05:01:01;40.30;;;22.40;;
13967;SDS011;39536;52.198;9.920;2023-11-21T05:03:28;35.67;;;21.10;;
13967;SDS011;39536;52.198;9.920;2023-11-21T05:05:56;42.10;;;21.83;;
13967;SDS011;39536;52.198;9.920;2023-11-21T05:08:22;37.00;;;20.47;;
13967;SDS011;39536;52.198;9.920;2023-11-21T05:10:49;41.77;;;22.60;;
13967;SDS011;39536;52.198;9.920;2023-11-21T05:13:16;44.83;;;22.57;;
13967;SDS011;39536;52.198;9.920;2023-11-21T05:15:45;46.20;;;22.57;;
13967;SDS011;39536;52.198;9.920;2023-11-21T05:18:12;38.40;;;22.23;;
13967;SDS011;39536;52.198;9.920;2023-11-21T05:20:39;48.40;;;24.70;;
13967;SDS011;39536;52.198;9.920;2023-11-21T05:23:06;44.13;;;23.57;;
13967;SDS011;39536;52.198;9.920;2023-11-21T05:25:33;48.20;;;24.53;;
13967;SDS011;39536;52.198;9.920;2023-11-21T05:27:59;46.43;;;25.00;;
13967;SDS011;39536;52.198;9.920;2023-11-21T05:30:27;39.70;;;22.73;;
13967;SDS011;39536;52.198;9.920;2023-11-21T05:32:55;53.77;;;24.20;;
13967;SDS011;39536;52.198;9.920;2023-11-21T05:35:22;52.87;;;25.53;;
13967;SDS011;39536;52.198;9.920;2023-11-21T05:37:49;48.10;;;24.37;;
13967;SDS011;39536;52.198;9.920;2023-11-21T05:40:16;57.47;;;25.90;;
13967;SDS011;39536;52.198;9.920;2023-11-21T05:42:43;46.37;;;23.17;;
13967;SDS011;39536;52.198;9.920;2023-11-21T05:45:10;46.90;;;24.00;;
13967;SDS011;39536;52.198;9.920;2023-11-21T05:47:38;51.07;;;24.67;;
13967;SDS011;39536;52.198;9.920;2023-11-21T05:50:08;57.83;;;24.77;;
13967;SDS011;39536;52.198;9.920;2023-11-21T05:52:37;51.50;;;24.60;;
13967;SDS011;39536;52.198;9.920;2023-11-21T05:55:04;55.30;;;23.93;;
13967;SDS011;39536;52.198;9.920;2023-11-21T05:57:32;54.33;;;24.20;;
13967;SDS011;39536;52.198;9.920;2023-11-21T05:59:59;50.20;;;25.77;;
13967;SDS011;39536;52.198;9.920;2023-11-21T06:02:28;59.40;;;26.83;;
13967;SDS011;39536;52.198;9.920;2023-11-21T06:04:55;62.40;;;27.13;;
13967;SDS011;39536;52.198;9.920;2023-11-21T06:07:23;54.00;;;25.30;;
13967;SDS011;39536;52.198;9.920;2023-11-21T06:09:50;53.63;;;25.73;;
13967;SDS011;39536;52.198;9.920;2023-11-21T06:12:16;52.40;;;25.80;;
13967;SDS011;39536;52.198;9.920;2023-11-21T06:14:45;58.73;;;25.83;;
13967;SDS011;39536;52.198;9.920;2023-11-21T06:17:13;61.80;;;25.80;;
13967;SDS011;39536;52.198;9.920;2023-11-21T06:19:39;58.57;;;25.23;;
13967;SDS011;39536;52.198;9.920;2023-11-21T06:22:06;56.53;;;24.83;;
13967;SDS011;39536;52.198;9.920;2023-11-21T06:24:35;60.33;;;26.83;;
13967;SDS011;39536;52.198;9.920;2023-11-21T06:27:03;63.87;;;26.43;;
13967;SDS011;39536;52.198;9.920;2023-11-21T06:29:30;57.63;;;27.17;;
13967;SDS011;39536;52.198;9.920;2023-11-21T06:31:57;51.47;;;24.67;;
13967;SDS011;39536;52.198;9.920;2023-11-21T06:34:23;60.93;;;26.50;;
13967;SDS011;39536;52.198;9.920;2023-11-21T06:36:50;54.93;;;25.87;;
13967;SDS011;39536;52.198;9.920;2023-11-21T06:39:17;43.60;;;23.83;;
13967;SDS011;39536;52.198;9.920;2023-11-21T06:41:49;56.27;;;26.10;;
13967;SDS011;39536;52.198;9.920;2023-11-21T06:44:15;53.20;;;24.90;;
13967;SDS011;39536;52.198;9.920;2023-11-21T06:46:42;56.83;;;26.23;;
13967;SDS011;39536;52.198;9.920;2023-11-21T06:49:10;56.80;;;27.13;;
13967;SDS011;39536;52.198;9.920;2023-11-21T06:51:37;52.37;;;24.90;;
13967;SDS011;39536;52.198;9.920;2023-11-21T06:54:03;55.67;;;26.00;;
13967;SDS011;39536;52.198;9.920;2023-11-21T06:56:31;57.93;;;26.13;;
13967;SDS011;39536;52.198;9.920;2023-11-21T06:58:59;48.23;;;23.80;;
13967;SDS011;39536;52.198;9.920;2023-11-21T07:01:26;54.10;;;24.00;;
13967;SDS011;39536;52.198;9.920;2023-11-21T07:03:53;61.88;;;30.27;;
13967;SDS011;39536;52.198;9.920;2023-11-21T07:06:19;55.87;;;25.93;;
13967;SDS011;39536;52.198;9.920;2023-11-21T07:08:46;56.47;;;25.83;;
13967;SDS011;39536;52.198;9.920;2023-11-21T07:11:13;52.67;;;23.67;;
13967;SDS011;39536;52.198;9.920;2023-11-21T07:13:40;50.33;;;24.80;;
13967;SDS011;39536;52.198;9.920;2023-11-21T07:16:08;54.20;;;26.10;;
13967;SDS011;39536;52.198;9.920;2023-11-21T07:18:35;49.30;;;24.77;;
13967;SDS011;39536;52.198;9.920;2023-11-21T07:21:02;50.60;;;24.13;;
13967;SDS011;39536;52.198;9.920;2023-11-21T07:23:31;46.87;;;23.70;;
13967;SDS011;39536;52.198;9.920;2023-11-21T07:25:57;49.70;;;23.73;;
13967;SDS011;39536;52.198;9.920;2023-11-21T07:28:24;54.03;;;23.23;;
13967;SDS011;39536;52.198;9.920;2023-11-21T07:30:51;14.87;;;10.73;;
13967;SDS011;39536;52.198;9.920;2023-11-21T07:33:19;6.90;;;6.20;;
13967;SDS011;39536;52.198;9.920;2023-11-21T07:35:46;6.20;;;5.53;;
13967;SDS011;39536;52.198;9.920;2023-11-21T07:38:13;6.40;;;5.80;;
13967;SDS011;39536;52.198;9.920;2023-11-21T07:40:40;6.00;;;5.50;;
13967;SDS011;39536;52.198;9.920;2023-11-21T07:43:06;5.97;;;5.47;;
13967;SDS011;39536;52.198;9.920;2023-11-21T07:45:34;5.93;;;5.33;;
13967;SDS011;39536;52.198;9.920;2023-11-21T07:48:00;5.30;;;4.80;;
13967;SDS011;39536;52.198;9.920;2023-11-21T07:50:29;5.63;;;5.13;;
13967;SDS011;39536;52.198;9.920;2023-11-21T07:52:57;6.17;;;5.40;;
13967;SDS011;39536;52.198;9.920;2023-11-21T07:55:24;6.63;;;6.00;;
13967;SDS011;39536;52.198;9.920;2023-11-21T07:57:51;5.73;;;5.23;;
13967;SDS011;39536;52.198;9.920;2023-11-21T08:00:18;5.30;;;4.80;;
13967;SDS011;39536;52.198;9.920;2023-11-21T08:02:46;5.57;;;5.07;;
13967;SDS011;39536;52.198;9.920;2023-11-21T08:05:13;6.00;;;5.40;;
13967;SDS011;39536;52.198;9.920;2023-11-21T08:07:41;5.43;;;4.93;;
13967;SDS011;39536;52.198;9.920;2023-11-21T08:10:08;5.63;;;5.13;;
13967;SDS011;39536;52.198;9.920;2023-11-21T08:12:36;6.30;;;5.77;;
13967;SDS011;39536;52.198;9.920;2023-11-21T08:15:04;6.50;;;5.93;;
13967;SDS011;39536;52.198;9.920;2023-11-21T08:17:32;7.03;;;6.43;;
13967;SDS011;39536;52.198;9.920;2023-11-21T08:19:59;6.43;;;5.90;;
13967;SDS011;39536;52.198;9.920;2023-11-21T08:22:28;6.80;;;6.23;;
13967;SDS011;39536;52.198;9.920;2023-11-21T08:24:57;7.13;;;6.43;;
13967;SDS011;39536;52.198;9.920;2023-11-21T08:27:23;6.67;;;6.07;;
13967;SDS011;39536;52.198;9.920;2023-11-21T08:29:50;6.30;;;5.80;;
13967;SDS011;39536;52.198;9.920;2023-11-21T08:32:17;5.97;;;5.47;;
13967;SDS011;39536;52.198;9.920;2023-11-21T08:34:44;8.27;;;7.53;;
13967;SDS011;39536;52.198;9.920;2023-11-21T08:37:11;7.67;;;7.03;;
13967;SDS011;39536;52.198;9.920;2023-11-21T08:39:41;8.50;;;7.70;;
13967;SDS011;39536;52.198;9.920;2023-11-21T08:42:09;7.87;;;7.17;;
13967;SDS011;39536;52.198;9.920;2023-11-21T08:44:36;8.30;;;7.60;;
13967;SDS011;39536;52.198;9.920;2023-11-21T08:47:03;8.03;;;7.33;;
13967;SDS011;39536;52.198;9.920;2023-11-21T08:49:30;10.27;;;9.37;;
13967;SDS011;39536;52.198;9.920;2023-11-21T08:51:57;12.80;;;11.50;;
13967;SDS011;39536;52.198;9.920;2023-11-21T08:54:24;14.40;;;11.60;;
13967;SDS011;39536;52.198;9.920;2023-11-21T08:56:51;12.60;;;10.90;;
13967;SDS011;39536;52.198;9.920;2023-11-21T08:59:22;13.20;;;11.90;;
13967;SDS011;39536;52.198;9.920;2023-11-21T09:01:49;11.77;;;10.73;;
13967;SDS011;39536;52.198;9.920;2023-11-21T09:04:15;12.83;;;11.37;;
13967;SDS011;39536;52.198;9.920;2023-11-21T09:06:42;12.43;;;11.23;;
13967;SDS011;39536;52.198;9.920;2023-11-21T09:09:10;14.10;;;12.43;;
13967;SDS011;39536;52.198;9.920;2023-11-21T09:11:40;12.27;;;11.13;;
13967;SDS011;39536;52.198;9.920;2023-11-21T09:14:09;13.43;;;10.63;;
13967;SDS011;39536;52.198;9.920;2023-11-21T09:16:39;11.67;;;10.53;;
13967;SDS011;39536;52.198;9.920;2023-11-21T09:19:09;14.97;;;12.20;;
13967;SDS011;39536;52.198;9.920;2023-11-21T09:21:35;14.60;;;12.90;;
13967;SDS011;39536;52.198;9.920;2023-11-21T09:24:02;13.50;;;12.20;;
13967;SDS011;39536;52.198;9.920;2023-11-21T09:26:29;14.00;;;12.60;;
13967;SDS011;39536;52.198;9.920;2023-11-21T09:28:56;18.37;;;13.47;;
13967;SDS011;39536;52.198;9.920;2023-11-21T09:31:22;18.03;;;13.20;;
13967;SDS011;39536;52.198;9.920;2023-11-21T09:33:51;14.10;;;12.67;;
13967;SDS011;39536;52.198;9.920;2023-11-21T09:36:19;14.27;;;12.23;;
13967;SDS011;39536;52.198;9.920;2023-11-21T09:38:48;13.10;;;11.80;;
13967;SDS011;39536;52.198;9.920;2023-11-21T09:41:18;15.43;;;12.37;;
13967;SDS011;39536;52.198;9.920;2023-11-21T09:43:53;12.87;;;11.77;;
13967;SDS011;39536;52.198;9.920;2023-11-21T09:46:24;15.87;;;12.57;;
13967;SDS011;39536;52.198;9.920;2023-11-21T09:48:56;13.10;;;11.90;;
13967;SDS011;39536;52.198;9.920;2023-11-21T09:51:27;12.43;;;11.30;;
13967;SDS011;39536;52.198;9.920;2023-11-21T09:53:58;13.00;;;11.63;;
13967;SDS011;39536;52.198;9.920;2023-11-21T09:56:32;11.67;;;10.67;;
13967;SDS011;39536;52.198;9.920;2023-11-21T09:58:58;11.70;;;10.50;;
13967;SDS011;39536;52.198;9.920;2023-11-21T10:01:31;11.17;;;10.23;;
13967;SDS011;39536;52.198;9.920;2023-11-21T10:04:00;11.83;;;10.70;;
13967;SDS011;39536;52.198;9.920;2023-11-21T10:06:27;11.23;;;10.23;;
13967;SDS011;39536;52.198;9.920;2023-11-21T10:08:56;10.17;;;9.17;;
13967;SDS011;39536;52.198;9.920;2023-11-21T10:11:25;11.60;;;10.50;;
13967;SDS011;39536;52.198;9.920;2023-11-21T10:13:55;10.77;;;9.77;;
13967;SDS011;39536;52.198;9.920;2023-11-21T10:16:22;9.43;;;8.67;;
13967;SDS011;39536;52.198;9.920;2023-11-21T10:18:52;10.33;;;9.40;;
13967;SDS011;39536;52.198;9.920;2023-11-21T10:21:22;8.40;;;7.70;;
13967;SDS011;39536;52.198;9.920;2023-11-21T10:23:48;9.40;;;8.50;;
13967;SDS011;39536;52.198;9.920;2023-11-21T10:26:18;7.97;;;7.27;;
13967;SDS011;39536;52.198;9.920;2023-11-21T10:28:54;8.83;;;7.93;;
13967;SDS011;39536;52.198;9.920;2023-11-21T10:31:22;8.63;;;7.83;;
13967;SDS011;39536;52.198;9.920;2023-11-21T10:33:50;11.07;;;8.17;;
13967;SDS011;39536;52.198;9.920;2023-11-21T10:36:26;8.13;;;7.43;;
13967;SDS011;39536;52.198;9.920;2023-11-21T10:38:53;8.10;;;7.40;;
13967;SDS011;39536;52.198;9.920;2023-11-21T10:41:19;8.27;;;7.57;;
13967;SDS011;39536;52.198;9.920;2023-11-21T10:43:46;8.53;;;7.83;;
13967;SDS011;39536;52.198;9.920;2023-11-21T10:46:13;8.53;;;7.83;;
13967;SDS011;39536;52.198;9.920;2023-11-21T10:48:41;8.37;;;7.73;;
13967;SDS011;39536;52.198;9.920;2023-11-21T10:51:08;11.47;;;8.07;;
13967;SDS011;39536;52.198;9.920;2023-11-21T10:53:39;7.77;;;7.10;;
13967;SDS011;39536;52.198;9.920;2023-11-21T10:56:08;8.30;;;7.50;;
13967;SDS011;39536;52.198;9.920;2023-11-21T10:58:36;8.33;;;7.63;;
13967;SDS011;39536;52.198;9.920;2023-11-21T11:01:05;7.60;;;6.90;;
13967;SDS011;39536;52.198;9.920;2023-11-21T11:03:33;8.47;;;7.67;;
13967;SDS011;39536;52.198;9.920;2023-11-21T11:06:03;8.07;;;7.37;;
13967;SDS011;39536;52.198;9.920;2023-11-21T11:08:36;8.93;;;8.03;;
13967;SDS011;39536;52.198;9.920;2023-11-21T11:11:05;8.63;;;7.93;;
13967;SDS011;39536;52.198;9.920;2023-11-21T11:13:32;7.30;;;6.70;;
13967;SDS011;39536;52.198;9.920;2023-11-21T11:16:00;7.93;;;7.30;;
13967;SDS011;39536;52.198;9.920;2023-11-21T11:18:28;8.00;;;6.87;;
13967;SDS011;39536;52.198;9.920;2023-11-21T11:20:56;7.43;;;6.80;;
13967;SDS011;39536;52.198;9.920;2023-11-21T11:23:35;7.43;;;6.70;;
13967;SDS011;39536;52.198;9.920;2023-11-21T11:26:16;7.73;;;7.00;;
13967;SDS011;39536;52.198;9.920;2023-11-21T11:28:57;7.63;;;6.70;;
13967;SDS011;39536;52.198;9.920;2023-11-21T11:31:37;7.67;;;7.07;;
13967;SDS011;39536;52.198;9.920;2023-11-21T11:34:16;6.87;;;6.33;;
13967;SDS011;39536;52.198;9.920;2023-11-21T11:36:54;9.03;;;7.83;;
13967;SDS011;39536;52.198;9.920;2023-11-21T11:39:34;7.87;;;7.13;;
13967;SDS011;39536;52.198;9.920;2023-11-21T11:42:04;8.77;;;6.30;;
13967;SDS011;39536;52.198;9.920;2023-11-21T11:47:19;7.10;;;6.40;;
13967;SDS011;39536;52.198;9.920;2023-11-21T11:49:57;7.77;;;7.07;;
13967;SDS011;39536;52.198;9.920;2023-11-21T11:52:32;11.80;;;6.63;;
13967;SDS011;39536;52.198;9.920;2023-11-21T11:55:02;8.30;;;6.60;;
13967;SDS011;39536;52.198;9.920;2023-11-21T11:57:32;7.73;;;7.13;;
13967;SDS011;39536;52.198;9.920;2023-11-21T12:00:12;7.50;;;6.83;;
13967;SDS011;39536;52.198;9.920;2023-11-21T12:02:45;7.80;;;7.20;;
13967;SDS011;39536;52.198;9.920;2023-11-21T12:05:13;7.30;;;6.70;;
13967;SDS011;39536;52.198;9.920;2023-11-21T12:07:45;7.63;;;7.03;;
13967;SDS011;39536;52.198;9.920;2023-11-21T12:10:13;8.33;;;7.60;;
13967;SDS011;39536;52.198;9.920;2023-11-21T12:12:44;7.53;;;6.93;;
13967;SDS011;39536;52.198;9.920;2023-11-21T12:15:15;7.87;;;7.17;;
13967;SDS011;39536;52.198;9.920;2023-11-21T12:17:43;7.87;;;7.27;;
13967;SDS011;39536;52.198;9.920;2023-11-21T12:20:10;7.67;;;7.07;;
13967;SDS011;39536;52.198;9.920;2023-11-21T12:22:42;7.20;;;6.47;;
13967;SDS011;39536;52.198;9.920;2023-11-21T12:25:12;7.60;;;6.83;;
13967;SDS011;39536;52.198;9.920;2023-11-21T12:27:41;7.67;;;7.07;;
13967;SDS011;39536;52.198;9.920;2023-11-21T12:30:12;9.87;;;6.97;;
13967;SDS011;39536;52.198;9.920;2023-11-21T12:32:40;7.37;;;6.70;;
13967;SDS011;39536;52.198;9.920;2023-11-21T12:35:08;7.40;;;6.77;;
13967;SDS011;39536;52.198;9.920;2023-11-21T12:37:38;7.10;;;6.23;;
13967;SDS011;39536;52.198;9.920;2023-11-21T12:40:08;6.67;;;6.17;;
13967;SDS011;39536;52.198;9.920;2023-11-21T12:42:37;6.97;;;6.27;;
13967;SDS011;39536;52.198;9.920;2023-11-21T12:45:06;7.50;;;6.80;;
13967;SDS011;39536;52.198;9.920;2023-11-21T12:47:45;7.37;;;6.77;;
13967;SDS011;39536;52.198;9.920;2023-11-21T12:50:12;6.20;;;5.80;;
13967;SDS011;39536;52.198;9.920;2023-11-21T12:52:41;6.93;;;6.23;;
13967;SDS011;39536;52.198;9.920;2023-11-21T12:55:13;6.33;;;5.83;;
13967;SDS011;39536;52.198;9.920;2023-11-21T12:57:42;7.57;;;6.83;;
13967;SDS011;39536;52.198;9.920;2023-11-21T13:00:10;8.13;;;7.33;;
13967;SDS011;39536;52.198;9.920;2023-11-21T13:02:52;6.90;;;6.30;;
13967;SDS011;39536;52.198;9.920;2023-11-21T13:05:26;7.20;;;6.60;;
13967;SDS011;39536;52.198;9.920;2023-11-21T13:07:53;21.40;;;19.83;;
13967;SDS011;39536;52.198;9.920;2023-11-21T13:10:22;7.67;;;6.67;;
13967;SDS011;39536;52.198;9.920;2023-11-21T13:12:52;6.83;;;6.30;;
13967;SDS011;39536;52.198;9.920;2023-11-21T13:15:21;6.70;;;6.17;;
13967;SDS011;39536;52.198;9.920;2023-11-21T13:17:48;6.53;;;6.03;;
13967;SDS011;39536;52.198;9.920;2023-11-21T13:20:16;5.47;;;5.07;;
13967;SDS011;39536;52.198;9.920;2023-11-21T13:22:48;5.07;;;4.67;;
13967;SDS011;39536;52.198;9.920;2023-11-21T13:25:16;5.47;;;5.07;;
13967;SDS011;39536;52.198;9.920;2023-11-21T13:27:44;6.00;;;5.40;;
13967;SDS011;39536;52.198;9.920;2023-11-21T13:30:14;4.90;;;4.50;;
13967;SDS011;39536;52.198;9.920;2023-11-21T13:32:44;5.27;;;4.87;;
13967;SDS011;39536;52.198;9.920;2023-11-21T13:35:12;5.40;;;5.00;;
13967;SDS011;39536;52.198;9.920;2023-11-21T13:37:48;5.37;;;4.97;;
13967;SDS011;39536;52.198;9.920;2023-11-21T13:40:21;6.07;;;5.47;;
13967;SDS011;39536;52.198;9.920;2023-11-21T13:42:51;5.67;;;5.27;;
13967;SDS011;39536;52.198;9.920;2023-11-21T13:45:24;5.30;;;4.80;;
13967;SDS011;39536;52.198;9.920;2023-11-21T13:47:54;5.53;;;5.10;;
13967;SDS011;39536;52.198;9.920;2023-11-21T13:50:23;6.07;;;5.03;;
13967;SDS011;39536;52.198;9.920;2023-11-21T13:52:55;5.33;;;4.93;;
13967;SDS011;39536;52.198;9.920;2023-11-21T13:55:22;5.27;;;4.93;;
13967;SDS011;39536;52.198;9.920;2023-11-21T13:57:50;5.10;;;4.70;;
13967;SDS011;39536;52.198;9.920;2023-11-21T14:00:20;5.90;;;5.47;;
13967;SDS011;39536;52.198;9.920;2023-11-21T14:03:14;5.37;;;4.97;;
13967;SDS011;39536;52.198;9.920;2023-11-21T14:05:45;7.13;;;6.50;;
13967;SDS011;39536;52.198;9.920;2023-11-21T14:08:16;5.97;;;5.47;;
13967;SDS011;39536;52.198;9.920;2023-11-21T14:10:45;6.23;;;5.63;;
13967;SDS011;39536;52.198;9.920;2023-11-21T14:13:15;7.03;;;6.33;;
13967;SDS011;39536;52.198;9.920;2023-11-21T14:15:48;6.37;;;5.87;;
13967;SDS011;39536;52.198;9.920;2023-11-21T14:18:24;6.40;;;5.90;;
13967;SDS011;39536;52.198;9.920;2023-11-21T14:20:59;5.90;;;5.33;;
13967;SDS011;39536;52.198;9.920;2023-11-21T14:23:26;4.73;;;4.33;;
13967;SDS011;39536;52.198;9.920;2023-11-21T14:25:55;5.20;;;4.80;;
13967;SDS011;39536;52.198;9.920;2023-11-21T14:28:22;4.43;;;4.10;;
13967;SDS011;39536;52.198;9.920;2023-11-21T14:30:49;4.17;;;3.87;;
13967;SDS011;39536;52.198;9.920;2023-11-21T14:33:16;5.10;;;4.60;;
13967;SDS011;39536;52.198;9.920;2023-11-21T14:35:44;4.23;;;3.83;;
13967;SDS011;39536;52.198;9.920;2023-11-21T14:38:12;4.47;;;4.07;;
13967;SDS011;39536;52.198;9.920;2023-11-21T14:40:39;4.43;;;4.13;;